Cocoa, Florida
Current Conditions -  °F | °C
As of 7:58 PM on Sunday 23 Nov 2014 (Local Time) from KCOF Reporting Station
Clear Clear  
Wind Chill: 74°   Ceiling: Unl
Heat Index: 74°   Visibility: 7mi
Dew Point: 73°   Wind: 12mph
Humidity: 95%   Direction: 160°SSE
Pressure: 29.93"   Gusts: NA
Location:  28.35°N, 80.73°W
Report Text: KCOF 240058Z AUTO 16010KT 7SM R20/5500FT CLR 23/23 A2993 RMK AO2 SLP140 T02340226
Loading
Personal Weather Stations






























Interactive Weather Map New forecast layout! Learn more

10-Day Weather Forecast

Advertisements
Track Severe Weather on mobile